<?xml version="1.0" encoding="utf-8"?>
<gpx xmlns:xsi="http://www.w3.org/2001/XMLSchema-instance" xmlns:xsd="http://www.w3.org/2001/XMLSchema" version="1.1" creator="Shapelink.com" xmlns="http://www.topografix.com/GPX/1/1" xmlns:gpxtpx="http://www.garmin.com/xmlschemas/TrackPointExtension/v1">
  <metadata>
    <name>Cycling 11.26 km, 2020-06-18</name>
    <desc></desc>
    <author><name>Marian Moron</name></author> 
    <time>2020-06-18T19:28:46Z</time>
  </metadata>
  <trk>
    <name>Cycling 11.26 km, 2020-06-18</name>
    <trkseg>
      <trkpt lat="51.228751481217" lon="4.44905217032">
        <ele>0</ele>
        <time>2020-06-18T19:28:46Z</time>
      </trkpt>
      <trkpt lat="51.228752570864" lon="4.44899601159">
        <ele>0</ele>
        <time>2020-06-18T19:29:01Z</time>
      </trkpt>
      <trkpt lat="51.228756929452" lon="4.449067006283">
        <ele>0</ele>
        <time>2020-06-18T19:29:04Z</time>
      </trkpt>
      <trkpt lat="51.228785511731" lon="4.449011266648">
        <ele>0</ele>
        <time>2020-06-18T19:29:10Z</time>
      </trkpt>
      <trkpt lat="51.228753828149" lon="4.448982097636">
        <ele>0</ele>
        <time>2020-06-18T19:29:22Z</time>
      </trkpt>
      <trkpt lat="51.228770927225" lon="4.448929626942">
        <ele>0</ele>
        <time>2020-06-18T19:29:24Z</time>
      </trkpt>
      <trkpt lat="51.228972763377" lon="4.448585885223">
        <ele>0</ele>
        <time>2020-06-18T19:29:47Z</time>
      </trkpt>
      <trkpt lat="51.228675457384" lon="4.447833106784">
        <ele>0</ele>
        <time>2020-06-18T19:30:09Z</time>
      </trkpt>
      <trkpt lat="51.228330961294" lon="4.447247128155">
        <ele>0</ele>
        <time>2020-06-18T19:30:25Z</time>
      </trkpt>
      <trkpt lat="51.227897449426" lon="4.447813493138">
        <ele>0.4</ele>
        <time>2020-06-18T19:30:44Z</time>
      </trkpt>
      <trkpt lat="51.227491262552" lon="4.44840592583">
        <ele>0</ele>
        <time>2020-06-18T19:31:04Z</time>
      </trkpt>
      <trkpt lat="51.227137127277" lon="4.449049488112">
        <ele>0</ele>
        <time>2020-06-18T19:31:36Z</time>
      </trkpt>
      <trkpt lat="51.227042579445" lon="4.449302705311">
        <ele>0</ele>
        <time>2020-06-18T19:31:46Z</time>
      </trkpt>
      <trkpt lat="51.226967226164" lon="4.449365234285">
        <ele>0</ele>
        <time>2020-06-18T19:31:52Z</time>
      </trkpt>
      <trkpt lat="51.226549723725" lon="4.449853982874">
        <ele>0</ele>
        <time>2020-06-18T19:32:11Z</time>
      </trkpt>
      <trkpt lat="51.226133059476" lon="4.450417665649">
        <ele>0</ele>
        <time>2020-06-18T19:32:27Z</time>
      </trkpt>
      <trkpt lat="51.225742546755" lon="4.451014959843">
        <ele>0</ele>
        <time>2020-06-18T19:32:44Z</time>
      </trkpt>
      <trkpt lat="51.22541020442" lon="4.45170168891">
        <ele>0</ele>
        <time>2020-06-18T19:33:02Z</time>
      </trkpt>
      <trkpt lat="51.22517299665" lon="4.452495203383">
        <ele>0</ele>
        <time>2020-06-18T19:33:20Z</time>
      </trkpt>
      <trkpt lat="51.225065456873" lon="4.453368765001">
        <ele>0</ele>
        <time>2020-06-18T19:33:36Z</time>
      </trkpt>
      <trkpt lat="51.225038467155" lon="4.454251965804">
        <ele>0</ele>
        <time>2020-06-18T19:33:53Z</time>
      </trkpt>
      <trkpt lat="51.225007537944" lon="4.454401834176">
        <ele>0</ele>
        <time>2020-06-18T19:33:57Z</time>
      </trkpt>
      <trkpt lat="51.224589700229" lon="4.454430751731">
        <ele>0</ele>
        <time>2020-06-18T19:34:14Z</time>
      </trkpt>
      <trkpt lat="51.224448381395" lon="4.454492693972">
        <ele>5</ele>
        <time>2020-06-18T19:38:57Z</time>
      </trkpt>
      <trkpt lat="51.223891320321" lon="4.454476936">
        <ele>5.8</ele>
        <time>2020-06-18T19:39:20Z</time>
      </trkpt>
      <trkpt lat="51.223324117148" lon="4.454454221051">
        <ele>5</ele>
        <time>2020-06-18T19:39:38Z</time>
      </trkpt>
      <trkpt lat="51.222759680002" lon="4.454378783951">
        <ele>4.2</ele>
        <time>2020-06-18T19:39:57Z</time>
      </trkpt>
      <trkpt lat="51.222209492086" lon="4.45432941456">
        <ele>1.8</ele>
        <time>2020-06-18T19:40:14Z</time>
      </trkpt>
      <trkpt lat="51.22164673132" lon="4.454304352679">
        <ele>3.2</ele>
        <time>2020-06-18T19:40:34Z</time>
      </trkpt>
      <trkpt lat="51.22110106963" lon="4.45431516533">
        <ele>3.8</ele>
        <time>2020-06-18T19:40:55Z</time>
      </trkpt>
      <trkpt lat="51.220589270816" lon="4.454503674261">
        <ele>3</ele>
        <time>2020-06-18T19:41:16Z</time>
      </trkpt>
      <trkpt lat="51.220182916304" lon="4.455119911549">
        <ele>1</ele>
        <time>2020-06-18T19:41:33Z</time>
      </trkpt>
      <trkpt lat="51.219769856272" lon="4.454792598354">
        <ele>0.4</ele>
        <time>2020-06-18T19:41:51Z</time>
      </trkpt>
      <trkpt lat="51.219555614908" lon="4.454005705582">
        <ele>0</ele>
        <time>2020-06-18T19:42:06Z</time>
      </trkpt>
      <trkpt lat="51.219435083186" lon="4.453704041001">
        <ele>0</ele>
        <time>2020-06-18T19:42:17Z</time>
      </trkpt>
      <trkpt lat="51.219392670772" lon="4.453806886914">
        <ele>3.2</ele>
        <time>2020-06-18T19:42:59Z</time>
      </trkpt>
      <trkpt lat="51.219379092094" lon="4.453822393429">
        <ele>3.8</ele>
        <time>2020-06-18T19:43:00Z</time>
      </trkpt>
      <trkpt lat="51.21892680477" lon="4.454289851992">
        <ele>3.8</ele>
        <time>2020-06-18T19:43:18Z</time>
      </trkpt>
      <trkpt lat="51.218477032016" lon="4.454769631948">
        <ele>4.2</ele>
        <time>2020-06-18T19:43:34Z</time>
      </trkpt>
      <trkpt lat="51.21810873133" lon="4.455358292785">
        <ele>5.8</ele>
        <time>2020-06-18T19:43:52Z</time>
      </trkpt>
      <trkpt lat="51.218087944218" lon="4.456220874114">
        <ele>6</ele>
        <time>2020-06-18T19:44:09Z</time>
      </trkpt>
      <trkpt lat="51.218034635334" lon="4.457090244782">
        <ele>4</ele>
        <time>2020-06-18T19:44:26Z</time>
      </trkpt>
      <trkpt lat="51.217985349762" lon="4.457978307087">
        <ele>0.2</ele>
        <time>2020-06-18T19:44:44Z</time>
      </trkpt>
      <trkpt lat="51.217945619556" lon="4.458839379674">
        <ele>2</ele>
        <time>2020-06-18T19:44:59Z</time>
      </trkpt>
      <trkpt lat="51.217913097784" lon="4.459728783083">
        <ele>3</ele>
        <time>2020-06-18T19:45:14Z</time>
      </trkpt>
      <trkpt lat="51.21788158184" lon="4.46063595612">
        <ele>3</ele>
        <time>2020-06-18T19:45:29Z</time>
      </trkpt>
      <trkpt lat="51.217849143887" lon="4.461532316506">
        <ele>1</ele>
        <time>2020-06-18T19:45:45Z</time>
      </trkpt>
      <trkpt lat="51.217797846659" lon="4.462396322758">
        <ele>0.4</ele>
        <time>2020-06-18T19:46:00Z</time>
      </trkpt>
      <trkpt lat="51.217794912994" lon="4.463296203542">
        <ele>2.4</ele>
        <time>2020-06-18T19:46:17Z</time>
      </trkpt>
      <trkpt lat="51.217760798661" lon="4.464165741848">
        <ele>4</ele>
        <time>2020-06-18T19:46:33Z</time>
      </trkpt>
      <trkpt lat="51.21772400212" lon="4.465058078922">
        <ele>3.2</ele>
        <time>2020-06-18T19:46:49Z</time>
      </trkpt>
      <trkpt lat="51.217699946067" lon="4.465969107633">
        <ele>7.6</ele>
        <time>2020-06-18T19:47:03Z</time>
      </trkpt>
      <trkpt lat="51.217686702665" lon="4.466877202679">
        <ele>5.6</ele>
        <time>2020-06-18T19:47:18Z</time>
      </trkpt>
      <trkpt lat="51.217585365494" lon="4.467751518668">
        <ele>6</ele>
        <time>2020-06-18T19:47:34Z</time>
      </trkpt>
      <trkpt lat="51.217532475705" lon="4.468611753065">
        <ele>2.8</ele>
        <time>2020-06-18T19:47:48Z</time>
      </trkpt>
      <trkpt lat="51.217159145879" lon="4.469228660905">
        <ele>0</ele>
        <time>2020-06-18T19:48:04Z</time>
      </trkpt>
      <trkpt lat="51.216687664004" lon="4.469752194379">
        <ele>0</ele>
        <time>2020-06-18T19:48:21Z</time>
      </trkpt>
      <trkpt lat="51.216200088881" lon="4.470153268294">
        <ele>0</ele>
        <time>2020-06-18T19:48:36Z</time>
      </trkpt>
      <trkpt lat="51.215745789901" lon="4.469894351403">
        <ele>0</ele>
        <time>2020-06-18T19:48:54Z</time>
      </trkpt>
      <trkpt lat="51.215200882582" lon="4.469916982533">
        <ele>0</ele>
        <time>2020-06-18T19:49:11Z</time>
      </trkpt>
      <trkpt lat="51.215099210135" lon="4.469876665594">
        <ele>0</ele>
        <time>2020-06-18T19:49:15Z</time>
      </trkpt>
      <trkpt lat="51.215103484904" lon="4.469679439487">
        <ele>0</ele>
        <time>2020-06-18T19:49:22Z</time>
      </trkpt>
      <trkpt lat="51.215073058607" lon="4.469661166945">
        <ele>0</ele>
        <time>2020-06-18T19:49:24Z</time>
      </trkpt>
      <trkpt lat="51.215023605397" lon="4.469646163344">
        <ele>0</ele>
        <time>2020-06-18T19:49:28Z</time>
      </trkpt>
      <trkpt lat="51.215015894049" lon="4.469697376753">
        <ele>0</ele>
        <time>2020-06-18T19:49:52Z</time>
      </trkpt>
      <trkpt lat="51.215073812978" lon="4.469606768414">
        <ele>1.8</ele>
        <time>2020-06-18T19:50:04Z</time>
      </trkpt>
      <trkpt lat="51.214720851169" lon="4.468984244701">
        <ele>1</ele>
        <time>2020-06-18T19:50:28Z</time>
      </trkpt>
      <trkpt lat="51.214450702532" lon="4.469477268059">
        <ele>1.6</ele>
        <time>2020-06-18T19:50:45Z</time>
      </trkpt>
      <trkpt lat="51.214243166688" lon="4.4702516718">
        <ele>0</ele>
        <time>2020-06-18T19:51:00Z</time>
      </trkpt>
      <trkpt lat="51.214360764745" lon="4.471070751068">
        <ele>0</ele>
        <time>2020-06-18T19:51:17Z</time>
      </trkpt>
      <trkpt lat="51.214315670123" lon="4.471893602191">
        <ele>0.2</ele>
        <time>2020-06-18T19:51:34Z</time>
      </trkpt>
      <trkpt lat="51.214425053918" lon="4.472770265112">
        <ele>0</ele>
        <time>2020-06-18T19:51:52Z</time>
      </trkpt>
      <trkpt lat="51.214453971473" lon="4.473601414316">
        <ele>0</ele>
        <time>2020-06-18T19:52:11Z</time>
      </trkpt>
      <trkpt lat="51.214199832265" lon="4.473924201285">
        <ele>0</ele>
        <time>2020-06-18T19:52:25Z</time>
      </trkpt>
      <trkpt lat="51.214342827479" lon="4.474678907561">
        <ele>0</ele>
        <time>2020-06-18T19:52:44Z</time>
      </trkpt>
      <trkpt lat="51.214194300211" lon="4.47483992386">
        <ele>0</ele>
        <time>2020-06-18T19:52:51Z</time>
      </trkpt>
      <trkpt lat="51.214156246385" lon="4.475558336509">
        <ele>0</ele>
        <time>2020-06-18T19:53:07Z</time>
      </trkpt>
      <trkpt lat="51.214185918311" lon="4.47628328704">
        <ele>0</ele>
        <time>2020-06-18T19:53:25Z</time>
      </trkpt>
      <trkpt lat="51.214300917979" lon="4.477159279409">
        <ele>0</ele>
        <time>2020-06-18T19:53:43Z</time>
      </trkpt>
      <trkpt lat="51.214363363134" lon="4.477967462207">
        <ele>0</ele>
        <time>2020-06-18T19:54:01Z</time>
      </trkpt>
      <trkpt lat="51.214367721722" lon="4.478106601747">
        <ele>0</ele>
        <time>2020-06-18T19:54:04Z</time>
      </trkpt>
      <trkpt lat="51.214826714566" lon="4.478608845195">
        <ele>0</ele>
        <time>2020-06-18T19:54:19Z</time>
      </trkpt>
      <trkpt lat="51.21535527718" lon="4.478848232259">
        <ele>0</ele>
        <time>2020-06-18T19:54:34Z</time>
      </trkpt>
      <trkpt lat="51.215877972464" lon="4.479127684805">
        <ele>0</ele>
        <time>2020-06-18T19:54:49Z</time>
      </trkpt>
      <trkpt lat="51.216111156922" lon="4.479426583359">
        <ele>0</ele>
        <time>2020-06-18T19:54:59Z</time>
      </trkpt>
      <trkpt lat="51.216160610132" lon="4.480280112236">
        <ele>0</ele>
        <time>2020-06-18T19:55:15Z</time>
      </trkpt>
      <trkpt lat="51.216555481441" lon="4.480660482858">
        <ele>0</ele>
        <time>2020-06-18T19:55:33Z</time>
      </trkpt>
      <trkpt lat="51.216489683526" lon="4.480926943459">
        <ele>0</ele>
        <time>2020-06-18T19:55:40Z</time>
      </trkpt>
      <trkpt lat="51.216489851164" lon="4.481436898255">
        <ele>0</ele>
        <time>2020-06-18T19:55:53Z</time>
      </trkpt>
      <trkpt lat="51.217002488168" lon="4.481429270726">
        <ele>0</ele>
        <time>2020-06-18T19:56:16Z</time>
      </trkpt>
      <trkpt lat="51.217091755403" lon="4.480582447369">
        <ele>0</ele>
        <time>2020-06-18T19:56:35Z</time>
      </trkpt>
      <trkpt lat="51.21717750224" lon="4.479691870494">
        <ele>0</ele>
        <time>2020-06-18T19:56:52Z</time>
      </trkpt>
      <trkpt lat="51.217151937445" lon="4.478798862868">
        <ele>0</ele>
        <time>2020-06-18T19:57:07Z</time>
      </trkpt>
      <trkpt lat="51.217201474474" lon="4.477912644581">
        <ele>0</ele>
        <time>2020-06-18T19:57:26Z</time>
      </trkpt>
      <trkpt lat="51.217266266561" lon="4.477037071307">
        <ele>0</ele>
        <time>2020-06-18T19:57:46Z</time>
      </trkpt>
      <trkpt lat="51.217300464713" lon="4.476133334849">
        <ele>0.4</ele>
        <time>2020-06-18T19:58:04Z</time>
      </trkpt>
      <trkpt lat="51.217364837705" lon="4.475270418244">
        <ele>0</ele>
        <time>2020-06-18T19:58:21Z</time>
      </trkpt>
      <trkpt lat="51.217405992834" lon="4.47439735954">
        <ele>0</ele>
        <time>2020-06-18T19:58:35Z</time>
      </trkpt>
      <trkpt lat="51.217410602879" lon="4.473513488185">
        <ele>0</ele>
        <time>2020-06-18T19:58:48Z</time>
      </trkpt>
      <trkpt lat="51.217415129105" lon="4.472631125572">
        <ele>0</ele>
        <time>2020-06-18T19:59:03Z</time>
      </trkpt>
      <trkpt lat="51.217452763836" lon="4.472087978452">
        <ele>0</ele>
        <time>2020-06-18T19:59:13Z</time>
      </trkpt>
      <trkpt lat="51.217585952227" lon="4.470547720508">
        <ele>0</ele>
        <time>2020-06-18T19:59:41Z</time>
      </trkpt>
      <trkpt lat="51.217597770706" lon="4.469674661804">
        <ele>0</ele>
        <time>2020-06-18T19:59:57Z</time>
      </trkpt>
      <trkpt lat="51.217547563125" lon="4.4687848393">
        <ele>0</ele>
        <time>2020-06-18T20:00:13Z</time>
      </trkpt>
      <trkpt lat="51.217424684471" lon="4.468316123452">
        <ele>0</ele>
        <time>2020-06-18T20:00:22Z</time>
      </trkpt>
      <trkpt lat="51.217021766538" lon="4.46770273601">
        <ele>0</ele>
        <time>2020-06-18T20:00:39Z</time>
      </trkpt>
      <trkpt lat="51.216649191083" lon="4.467071159845">
        <ele>0</ele>
        <time>2020-06-18T20:00:59Z</time>
      </trkpt>
      <trkpt lat="51.216240741096" lon="4.466484594483">
        <ele>0</ele>
        <time>2020-06-18T20:01:16Z</time>
      </trkpt>
      <trkpt lat="51.215876966636" lon="4.465980674655">
        <ele>0</ele>
        <time>2020-06-18T20:01:28Z</time>
      </trkpt>
      <trkpt lat="51.215897921386" lon="4.465898532035">
        <ele>0</ele>
        <time>2020-06-18T20:01:30Z</time>
      </trkpt>
      <trkpt lat="51.216192545171" lon="4.465638860773">
        <ele>0</ele>
        <time>2020-06-18T20:01:41Z</time>
      </trkpt>
      <trkpt lat="51.216047957396" lon="4.464795809271">
        <ele>0</ele>
        <time>2020-06-18T20:01:55Z</time>
      </trkpt>
      <trkpt lat="51.215819466802" lon="4.464149480962">
        <ele>0</ele>
        <time>2020-06-18T20:02:09Z</time>
      </trkpt>
      <trkpt lat="51.21530414759" lon="4.464287195579">
        <ele>0</ele>
        <time>2020-06-18T20:02:28Z</time>
      </trkpt>
      <trkpt lat="51.215052271495" lon="4.464475536872">
        <ele>0</ele>
        <time>2020-06-18T20:02:39Z</time>
      </trkpt>
      <trkpt lat="51.214952526885" lon="4.463684369331">
        <ele>0</ele>
        <time>2020-06-18T20:03:00Z</time>
      </trkpt>
      <trkpt lat="51.214883208572" lon="4.463551851492">
        <ele>0</ele>
        <time>2020-06-18T20:03:05Z</time>
      </trkpt>
      <trkpt lat="51.214317849417" lon="4.463607674946">
        <ele>0</ele>
        <time>2020-06-18T20:03:22Z</time>
      </trkpt>
      <trkpt lat="51.213758189954" lon="4.463689733747">
        <ele>0</ele>
        <time>2020-06-18T20:03:38Z</time>
      </trkpt>
      <trkpt lat="51.213220071974" lon="4.463793836945">
        <ele>0</ele>
        <time>2020-06-18T20:03:54Z</time>
      </trkpt>
      <trkpt lat="51.212672817723" lon="4.46392501368">
        <ele>0</ele>
        <time>2020-06-18T20:04:10Z</time>
      </trkpt>
      <trkpt lat="51.212135035019" lon="4.464050490723">
        <ele>0</ele>
        <time>2020-06-18T20:04:25Z</time>
      </trkpt>
      <trkpt lat="51.211585517655" lon="4.464201867837">
        <ele>0</ele>
        <time>2020-06-18T20:04:42Z</time>
      </trkpt>
      <trkpt lat="51.211429781953" lon="4.464181332182">
        <ele>0</ele>
        <time>2020-06-18T20:04:49Z</time>
      </trkpt>
      <trkpt lat="51.211428943763" lon="4.464116623914">
        <ele>0</ele>
        <time>2020-06-18T20:04:51Z</time>
      </trkpt>
      <trkpt lat="51.211461800811" lon="4.464072870396">
        <ele>0</ele>
        <time>2020-06-18T20:04:53Z</time>
      </trkpt>
      <trkpt lat="51.211709569775" lon="4.464005312282">
        <ele>0</ele>
        <time>2020-06-18T20:05:02Z</time>
      </trkpt>
      <trkpt lat="51.211938395645" lon="4.463237027328">
        <ele>0</ele>
        <time>2020-06-18T20:05:27Z</time>
      </trkpt>
      <trkpt lat="51.212252549257" lon="4.462497157015">
        <ele>0</ele>
        <time>2020-06-18T20:05:45Z</time>
      </trkpt>
      <trkpt lat="51.212626884911" lon="4.461871783456">
        <ele>0</ele>
        <time>2020-06-18T20:06:03Z</time>
      </trkpt>
      <trkpt lat="51.213049835585" lon="4.461312962183">
        <ele>0</ele>
        <time>2020-06-18T20:06:25Z</time>
      </trkpt>
      <trkpt lat="51.213511342999" lon="4.460822704852">
        <ele>0</ele>
        <time>2020-06-18T20:06:46Z</time>
      </trkpt>
      <trkpt lat="51.213994978629" lon="4.460374273202">
        <ele>0</ele>
        <time>2020-06-18T20:07:07Z</time>
      </trkpt>
      <trkpt lat="51.214357076709" lon="4.460156176164">
        <ele>0</ele>
        <time>2020-06-18T20:07:23Z</time>
      </trkpt>
      <trkpt lat="51.214714648563" lon="4.460845922715">
        <ele>0</ele>
        <time>2020-06-18T20:07:45Z</time>
      </trkpt>
      <trkpt lat="51.215041961758" lon="4.46155880331">
        <ele>0</ele>
        <time>2020-06-18T20:08:03Z</time>
      </trkpt>
      <trkpt lat="51.21536701184" lon="4.462283167108">
        <ele>0</ele>
        <time>2020-06-18T20:08:20Z</time>
      </trkpt>
      <trkpt lat="51.215516377298" lon="4.462449966918">
        <ele>0</ele>
        <time>2020-06-18T20:08:27Z</time>
      </trkpt>
      <trkpt lat="51.215871937496" lon="4.461750581182">
        <ele>0</ele>
        <time>2020-06-18T20:08:43Z</time>
      </trkpt>
      <trkpt lat="51.216213248464" lon="4.461083130485">
        <ele>0</ele>
        <time>2020-06-18T20:08:59Z</time>
      </trkpt>
      <trkpt lat="51.216554978527" lon="4.460384582939">
        <ele>0</ele>
        <time>2020-06-18T20:09:16Z</time>
      </trkpt>
      <trkpt lat="51.21688581212" lon="4.459653681259">
        <ele>0</ele>
        <time>2020-06-18T20:09:35Z</time>
      </trkpt>
      <trkpt lat="51.217204156682" lon="4.458947170908">
        <ele>0</ele>
        <time>2020-06-18T20:09:52Z</time>
      </trkpt>
      <trkpt lat="51.217544545641" lon="4.458272763234">
        <ele>0</ele>
        <time>2020-06-18T20:10:11Z</time>
      </trkpt>
      <trkpt lat="51.217872194112" lon="4.45756566615">
        <ele>0</ele>
        <time>2020-06-18T20:10:34Z</time>
      </trkpt>
      <trkpt lat="51.218082244526" lon="4.456805092544">
        <ele>0</ele>
        <time>2020-06-18T20:10:59Z</time>
      </trkpt>
      <trkpt lat="51.21818835938" lon="4.455973524245">
        <ele>0</ele>
        <time>2020-06-18T20:11:19Z</time>
      </trkpt>
      <trkpt lat="51.218250217802" lon="4.455057131118">
        <ele>0</ele>
        <time>2020-06-18T20:11:38Z</time>
      </trkpt>
      <trkpt lat="51.218276872244" lon="4.454186251708">
        <ele>0</ele>
        <time>2020-06-18T20:11:55Z</time>
      </trkpt>
      <trkpt lat="51.218281230832" lon="4.453309840244">
        <ele>0</ele>
        <time>2020-06-18T20:12:11Z</time>
      </trkpt>
      <trkpt lat="51.218292127302" lon="4.452409456546">
        <ele>0</ele>
        <time>2020-06-18T20:12:30Z</time>
      </trkpt>
      <trkpt lat="51.218591696408" lon="4.45180227171">
        <ele>0</ele>
        <time>2020-06-18T20:12:46Z</time>
      </trkpt>
      <trkpt lat="51.218794873664" lon="4.451837559509">
        <ele>0</ele>
        <time>2020-06-18T20:12:50Z</time>
      </trkpt>
      <trkpt lat="51.219080528816" lon="4.452144001773">
        <ele>0</ele>
        <time>2020-06-18T20:13:03Z</time>
      </trkpt>
      <trkpt lat="51.218996877454" lon="4.452459496489">
        <ele>0</ele>
        <time>2020-06-18T20:13:18Z</time>
      </trkpt>
      <trkpt lat="51.219280772407" lon="4.453187129228">
        <ele>0</ele>
        <time>2020-06-18T20:13:33Z</time>
      </trkpt>
      <trkpt lat="51.219558129478" lon="4.453966897385">
        <ele>0</ele>
        <time>2020-06-18T20:13:49Z</time>
      </trkpt>
      <trkpt lat="51.219866499579" lon="4.45473593671">
        <ele>1.4</ele>
        <time>2020-06-18T20:14:08Z</time>
      </trkpt>
      <trkpt lat="51.220119046226" lon="4.455267768265">
        <ele>5.6</ele>
        <time>2020-06-18T20:14:23Z</time>
      </trkpt>
      <trkpt lat="51.220520706874" lon="4.454674329745">
        <ele>0</ele>
        <time>2020-06-18T20:14:42Z</time>
      </trkpt>
      <trkpt lat="51.220993865129" lon="4.454284906671">
        <ele>0.2</ele>
        <time>2020-06-18T20:15:03Z</time>
      </trkpt>
      <trkpt lat="51.221534581498" lon="4.454339221383">
        <ele>1.4</ele>
        <time>2020-06-18T20:15:20Z</time>
      </trkpt>
      <trkpt lat="51.222083847405" lon="4.454352213328">
        <ele>3.8</ele>
        <time>2020-06-18T20:15:35Z</time>
      </trkpt>
      <trkpt lat="51.222618947901" lon="4.454227406837">
        <ele>1.8</ele>
        <time>2020-06-18T20:15:51Z</time>
      </trkpt>
      <trkpt lat="51.222945758182" lon="4.453542857064">
        <ele>0</ele>
        <time>2020-06-18T20:16:08Z</time>
      </trkpt>
      <trkpt lat="51.223278771069" lon="4.452865180449">
        <ele>0</ele>
        <time>2020-06-18T20:16:23Z</time>
      </trkpt>
      <trkpt lat="51.223604491703" lon="4.452170069482">
        <ele>0</ele>
        <time>2020-06-18T20:16:39Z</time>
      </trkpt>
      <trkpt lat="51.22397270857" lon="4.451483005139">
        <ele>0</ele>
        <time>2020-06-18T20:17:03Z</time>
      </trkpt>
      <trkpt lat="51.224256687342" lon="4.451030717815">
        <ele>0</ele>
        <time>2020-06-18T20:17:14Z</time>
      </trkpt>
      <trkpt lat="51.224681146758" lon="4.450440799693">
        <ele>0</ele>
        <time>2020-06-18T20:17:31Z</time>
      </trkpt>
      <trkpt lat="51.224931095016" lon="4.450091693558">
        <ele>0</ele>
        <time>2020-06-18T20:18:29Z</time>
      </trkpt>
      <trkpt lat="51.225415485017" lon="4.449733451152">
        <ele>0</ele>
        <time>2020-06-18T20:18:54Z</time>
      </trkpt>
      <trkpt lat="51.225956201386" lon="4.449540499814">
        <ele>0</ele>
        <time>2020-06-18T20:19:14Z</time>
      </trkpt>
      <trkpt lat="51.226285190961" lon="4.448826781029">
        <ele>0</ele>
        <time>2020-06-18T20:19:33Z</time>
      </trkpt>
      <trkpt lat="51.226581072031" lon="4.448071655658">
        <ele>0</ele>
        <time>2020-06-18T20:19:50Z</time>
      </trkpt>
      <trkpt lat="51.226986588353" lon="4.447495316214">
        <ele>0</ele>
        <time>2020-06-18T20:20:08Z</time>
      </trkpt>
      <trkpt lat="51.227386991716" lon="4.446912774164">
        <ele>0</ele>
        <time>2020-06-18T20:20:26Z</time>
      </trkpt>
      <trkpt lat="51.227782449758" lon="4.446327801363">
        <ele>0</ele>
        <time>2020-06-18T20:20:42Z</time>
      </trkpt>
      <trkpt lat="51.2281695259" lon="4.445732183549">
        <ele>0</ele>
        <time>2020-06-18T20:21:00Z</time>
      </trkpt>
      <trkpt lat="51.228451493016" lon="4.444992732331">
        <ele>0</ele>
        <time>2020-06-18T20:21:18Z</time>
      </trkpt>
      <trkpt lat="51.228808897232" lon="4.444320420132">
        <ele>0</ele>
        <time>2020-06-18T20:21:35Z</time>
      </trkpt>
      <trkpt lat="51.229298986925" lon="4.443888500825">
        <ele>0</ele>
        <time>2020-06-18T20:21:51Z</time>
      </trkpt>
      <trkpt lat="51.229465619097" lon="4.443860002365">
        <ele>0</ele>
        <time>2020-06-18T20:21:56Z</time>
      </trkpt>
      <trkpt lat="51.229686063067" lon="4.444682350574">
        <ele>0</ele>
        <time>2020-06-18T20:22:13Z</time>
      </trkpt>
      <trkpt lat="51.229909021607" lon="4.445455580849">
        <ele>0</ele>
        <time>2020-06-18T20:22:30Z</time>
      </trkpt>
      <trkpt lat="51.230159221322" lon="4.446263847466">
        <ele>0</ele>
        <time>2020-06-18T20:22:47Z</time>
      </trkpt>
      <trkpt lat="51.23039240578" lon="4.447048225668">
        <ele>0</ele>
        <time>2020-06-18T20:23:03Z</time>
      </trkpt>
      <trkpt lat="51.230613352664" lon="4.447846182548">
        <ele>0.2</ele>
        <time>2020-06-18T20:23:19Z</time>
      </trkpt>
      <trkpt lat="51.230821810517" lon="4.448643468876">
        <ele>2.8</ele>
        <time>2020-06-18T20:23:34Z</time>
      </trkpt>
      <trkpt lat="51.2310361357" lon="4.449466655275">
        <ele>3</ele>
        <time>2020-06-18T20:23:50Z</time>
      </trkpt>
      <trkpt lat="51.231065304712" lon="4.449587103178">
        <ele>3</ele>
        <time>2020-06-18T20:23:52Z</time>
      </trkpt>
      <trkpt lat="51.231214502532" lon="4.450453624">
        <ele>3.2</ele>
        <time>2020-06-18T20:24:07Z</time>
      </trkpt>
      <trkpt lat="51.231354312624" lon="4.451326431247">
        <ele>2.2</ele>
        <time>2020-06-18T20:24:23Z</time>
      </trkpt>
      <trkpt lat="51.231549191799" lon="4.452401158465">
        <ele>2</ele>
        <time>2020-06-18T20:24:42Z</time>
      </trkpt>
      <trkpt lat="51.231704759863" lon="4.453272205513">
        <ele>0.8</ele>
        <time>2020-06-18T20:24:59Z</time>
      </trkpt>
      <trkpt lat="51.231846749249" lon="4.454139648344">
        <ele>0</ele>
        <time>2020-06-18T20:25:16Z</time>
      </trkpt>
      <trkpt lat="51.231997371992" lon="4.455001140026">
        <ele>2.2</ele>
        <time>2020-06-18T20:25:35Z</time>
      </trkpt>
      <trkpt lat="51.232148832925" lon="4.455864811002">
        <ele>1.6</ele>
        <time>2020-06-18T20:25:53Z</time>
      </trkpt>
      <trkpt lat="51.232293336881" lon="4.456716495861">
        <ele>3.8</ele>
        <time>2020-06-18T20:26:10Z</time>
      </trkpt>
      <trkpt lat="51.232231143183" lon="4.456818671222">
        <ele>1.6</ele>
        <time>2020-06-18T20:26:13Z</time>
      </trkpt>
      <trkpt lat="51.232170122951" lon="4.456807607114">
        <ele>1.4</ele>
        <time>2020-06-18T20:26:15Z</time>
      </trkpt>
      <trkpt lat="51.231692689927" lon="4.456403767172">
        <ele>3.8</ele>
        <time>2020-06-18T20:26:35Z</time>
      </trkpt>
      <trkpt lat="51.231281557732" lon="4.455831283402">
        <ele>2</ele>
        <time>2020-06-18T20:26:53Z</time>
      </trkpt>
      <trkpt lat="51.231177454534" lon="4.454978425077">
        <ele>0.4</ele>
        <time>2020-06-18T20:27:10Z</time>
      </trkpt>
      <trkpt lat="51.231039572279" lon="4.454134367747">
        <ele>0.6</ele>
        <time>2020-06-18T20:27:26Z</time>
      </trkpt>
      <trkpt lat="51.230913005589" lon="4.45336633425">
        <ele>0</ele>
        <time>2020-06-18T20:27:42Z</time>
      </trkpt>
      <trkpt lat="51.230897247617" lon="4.453383014231">
        <ele>0</ele>
        <time>2020-06-18T20:27:48Z</time>
      </trkpt>
      <trkpt lat="51.230759197724" lon="4.452526970784">
        <ele>1.4</ele>
        <time>2020-06-18T20:28:03Z</time>
      </trkpt>
      <trkpt lat="51.230633385405" lon="4.451656259012">
        <ele>4.4</ele>
        <time>2020-06-18T20:28:20Z</time>
      </trkpt>
      <trkpt lat="51.230473542572" lon="4.450822092324">
        <ele>3.6</ele>
        <time>2020-06-18T20:28:36Z</time>
      </trkpt>
      <trkpt lat="51.229938609714" lon="4.450828127292">
        <ele>0</ele>
        <time>2020-06-18T20:28:52Z</time>
      </trkpt>
      <trkpt lat="51.229685727791" lon="4.450928710092">
        <ele>0</ele>
        <time>2020-06-18T20:29:00Z</time>
      </trkpt>
      <trkpt lat="51.229554383418" lon="4.450086748237">
        <ele>0</ele>
        <time>2020-06-18T20:29:15Z</time>
      </trkpt>
      <trkpt lat="51.229431504764" lon="4.449226849116">
        <ele>1.6</ele>
        <time>2020-06-18T20:29:31Z</time>
      </trkpt>
      <trkpt lat="51.229154566788" lon="4.448471556107">
        <ele>4</ele>
        <time>2020-06-18T20:29:49Z</time>
      </trkpt>
      <trkpt lat="51.228688281691" lon="4.448855111851">
        <ele>0</ele>
        <time>2020-06-18T20:30:09Z</time>
      </trkpt>
      <trkpt lat="51.228585771054" lon="4.449083434807">
        <ele>0</ele>
        <time>2020-06-18T20:30:15Z</time>
      </trkpt>
      <trkpt lat="51.228574874584" lon="4.4491460476">
        <ele>0</ele>
        <time>2020-06-18T20:30:17Z</time>
      </trkpt>
      <trkpt lat="51.228478063639" lon="4.449233806093">
        <ele>0</ele>
        <time>2020-06-18T20:30:28Z</time>
      </trkpt>
    </trkseg>
  </trk>
</gpx>